Terminal Aerodrome Forecast
Issued by NWS

Home | Current Version | Previous Version | Text Only | Print | Product List | Glossary On
Versions: 1 2 3 4 5 6 7 8 9 10 11 12 13 14
000
FTUS44 KEPZ 190521
TAFDMN
TAF
KDMN 190521Z 1906/2006 VRB04KT P6SM SCT080 BKN150 OVC200
     FM191500 11005KT P6SM SCT120
     FM192200 23006KT P6SM SCT070 SCT130 BKN200=

USA.gov is the U.S. government's official web portal to all federal, state and local government web resources and services.